createdAt,value
2022-11-29T00:00:16.526Z,101064.45
2022-11-29T00:05:39.374Z,101059.61
2022-11-29T00:10:42.363Z,101062.52
2022-11-29T00:15:45.190Z,101062.06
2022-11-29T00:20:47.940Z,101062.84
2022-11-29T00:25:50.691Z,101065.08
2022-11-29T00:30:53.553Z,101062.25
2022-11-29T00:36:01.516Z,101063.70
2022-11-29T00:41:04.949Z,101070.06
2022-11-29T00:46:08.871Z,101070.48
2022-11-29T00:51:11.951Z,101068.13
2022-11-29T00:56:14.737Z,101062.66
2022-11-29T01:01:17.635Z,101065.05
2022-11-29T01:06:20.552Z,101066.31
2022-11-29T01:11:25.730Z,101060.80
2022-11-29T01:16:30.658Z,101063.58
2022-11-29T01:21:33.493Z,101057.21
2022-11-29T01:26:36.285Z,101050.91
2022-11-29T01:31:39.335Z,101048.69
2022-11-29T01:36:42.110Z,101053.59
2022-11-29T01:41:44.926Z,101052.39
2022-11-29T01:46:49.629Z,101049.63
2022-11-29T01:51:59.142Z,101049.37
2022-11-29T01:57:05.713Z,101046.44
2022-11-29T02:02:18.374Z,101042.23
2022-11-29T02:07:21.274Z,101041.47
2022-11-29T02:12:36.228Z,101038.97
2022-11-29T02:18:03.919Z,101035.36
2022-11-29T02:23:15.862Z,101039.73
2022-11-29T02:28:41.651Z,101041.65
2022-11-29T02:33:49.449Z,101043.91
2022-11-29T02:39:07.217Z,101045.77
2022-11-29T02:44:30.989Z,101045.21
2022-11-29T02:49:48.673Z,101046.20
2022-11-29T02:54:58.459Z,101049.54
2022-11-29T03:00:13.555Z,101053.45
2022-11-29T03:05:37.066Z,101051.73
2022-11-29T03:11:37.143Z,101057.02
2022-11-29T03:16:59.133Z,101053.43
2022-11-29T03:22:19.523Z,101057.23
2022-11-29T03:27:36.398Z,101055.77
2022-11-29T03:32:45.017Z,101054.19
2022-11-29T03:38:06.296Z,101058.85
2022-11-29T03:43:36.144Z,101064.21
2022-11-29T03:48:54.223Z,101061.91
2022-11-29T03:54:25.727Z,101065.52
2022-11-29T04:00:01.842Z,101065.01
2022-11-29T04:05:19.768Z,101070.83
2022-11-29T04:10:44.646Z,101069.59
2022-11-29T04:16:04.357Z,101072.14
2022-11-29T04:21:41.258Z,101075.06
2022-11-29T04:26:43.893Z,101078.81
2022-11-29T04:32:02.770Z,101085.11
2022-11-29T04:37:33.647Z,101083.77
2022-11-29T04:43:12.153Z,101085.48
2022-11-29T04:48:26.954Z,101088.39
2022-11-29T04:53:56.708Z,101090.00
2022-11-29T04:59:07.641Z,101091.88
2022-11-29T05:04:39.069Z,101095.20
2022-11-29T05:10:00.875Z,101096.63
2022-11-29T05:15:58.012Z,101094.72
2022-11-29T05:21:14.323Z,101099.33
2022-11-29T05:26:32.562Z,101096.55
2022-11-29T05:32:21.214Z,101099.33
2022-11-29T05:37:47.795Z,101102.38
2022-11-29T05:43:02.350Z,101104.49
2022-11-29T05:48:24.385Z,101109.04
2022-11-29T05:54:08.151Z,101104.19
2022-11-29T05:59:19.357Z,101105.48
2022-11-29T06:04:33.253Z,101109.45
2022-11-29T06:09:48.165Z,101112.52
2022-11-29T06:15:28.511Z,101116.85
2022-11-29T06:21:02.025Z,101113.56
2022-11-29T06:26:29.218Z,101126.65
2022-11-29T06:31:38.525Z,101134.95
2022-11-29T06:37:09.791Z,101142.92
2022-11-29T06:42:12.595Z,101154.73
2022-11-29T06:47:54.455Z,101162.85
2022-11-29T06:53:21.839Z,101166.67
2022-11-29T06:58:49.323Z,101170.29
2022-11-29T07:04:17.731Z,101173.42
2022-11-29T07:09:25.394Z,101169.95
2022-11-29T07:14:28.524Z,101173.77
2022-11-29T07:19:46.034Z,101175.63
2022-11-29T07:25:17.504Z,101178.92
2022-11-29T07:30:30.298Z,101175.73
2022-11-29T07:35:47.838Z,101176.38
2022-11-29T07:41:23.599Z,101179.39
2022-11-29T07:46:28.780Z,101178.66
2022-11-29T07:51:34.675Z,101181.75
2022-11-29T07:56:37.451Z,101186.41
2022-11-29T08:01:41.013Z,101183.84
2022-11-29T08:06:43.873Z,101181.29
2022-11-29T08:11:46.723Z,101186.42
2022-11-29T08:16:49.782Z,101188.13
2022-11-29T08:21:55.168Z,101191.75
2022-11-29T08:26:58.013Z,101191.52
2022-11-29T08:32:01.057Z,101202.02
2022-11-29T08:37:04.026Z,101204.48
2022-11-29T08:42:09.012Z,101207.34
2022-11-29T08:47:30.355Z,101200.74
2022-11-29T08:52:56.908Z,101204.11
2022-11-29T08:58:14.462Z,101208.14
2022-11-29T09:03:36.377Z,101208.02
2022-11-29T09:08:39.742Z,101215.16
2022-11-29T09:13:44.984Z,101209.65
2022-11-29T09:18:52.375Z,101206.47
2022-11-29T09:23:59.347Z,101200.08
2022-11-29T09:29:04.967Z,101206.55
2022-11-29T09:34:07.832Z,101203.36
2022-11-29T09:39:14.483Z,101202.36
2022-11-29T09:44:30.613Z,101201.13
2022-11-29T09:49:46.726Z,101201.83
2022-11-29T09:54:58.392Z,101195.80
2022-11-29T10:00:09.293Z,101194.16
2022-11-29T10:05:21.343Z,101194.17
2022-11-29T10:10:38.018Z,101193.75
2022-11-29T10:15:44.375Z,101196.10
2022-11-29T10:20:49.873Z,101196.45
2022-11-29T10:25:55.223Z,101198.73
2022-11-29T10:31:17.769Z,101196.02
2022-11-29T10:36:40.907Z,101196.95
2022-11-29T10:41:43.996Z,101200.59
2022-11-29T10:46:47.024Z,101201.50
2022-11-29T10:51:50.079Z,101203.91
2022-11-29T10:56:57.838Z,101208.89
2022-11-29T11:02:23.030Z,101213.98
2022-11-29T11:07:33.168Z,101217.79
2022-11-29T11:12:37.129Z,101221.34
2022-11-29T11:17:42.294Z,101214.77
2022-11-29T11:22:59.805Z,101219.69
2022-11-29T11:28:20.959Z,101217.23
2022-11-29T11:33:37.344Z,101219.80
2022-11-29T11:38:55.802Z,101220.95
2022-11-29T11:44:00.121Z,101223.66
2022-11-29T11:49:11.351Z,101223.35
2022-11-29T11:54:15.586Z,101222.48
2022-11-29T11:59:21.407Z,101225.16
2022-11-29T12:04:37.243Z,101227.30
2022-11-29T12:09:48.014Z,101229.63
2022-11-29T12:14:58.227Z,101232.20
2022-11-29T12:20:22.626Z,101231.85
2022-11-29T12:25:32.602Z,101231.42
2022-11-29T12:30:37.114Z,101241.38
2022-11-29T12:36:13.211Z,101239.00
2022-11-29T12:41:52.443Z,101237.91
2022-11-29T12:47:36.113Z,101237.74
2022-11-29T12:52:51.385Z,101239.79
2022-11-29T12:58:00.353Z,101237.56
2022-11-29T13:03:22.765Z,101238.92
2022-11-29T13:08:45.894Z,101241.67
2022-11-29T13:14:20.190Z,101246.77
2022-11-29T13:19:34.916Z,101251.55
2022-11-29T13:24:43.405Z,101257.19
2022-11-29T13:29:48.310Z,101260.96
2022-11-29T13:34:53.124Z,101266.53
2022-11-29T13:40:11.244Z,101267.41
2022-11-29T13:45:26.489Z,101270.39
2022-11-29T13:50:40.435Z,101273.42
2022-11-29T13:56:02.611Z,101275.39
2022-11-29T14:01:12.186Z,101277.67
2022-11-29T14:06:21.360Z,101280.91
2022-11-29T14:11:51.106Z,101286.02
2022-11-29T14:16:59.653Z,101287.27
2022-11-29T14:22:03.064Z,101284.45
2022-11-29T14:27:06.928Z,101283.14
2022-11-29T14:32:21.195Z,101290.42
2022-11-29T14:37:33.626Z,101291.86
2022-11-29T14:42:46.822Z,101293.32
2022-11-29T14:47:50.735Z,101291.77
2022-11-29T14:52:54.245Z,101292.94
2022-11-29T14:58:04.071Z,101296.72
2022-11-29T15:03:37.876Z,101304.66
2022-11-29T15:08:52.000Z,101304.09
2022-11-29T15:14:09.812Z,101309.25
2022-11-29T15:19:31.482Z,101307.09
2022-11-29T15:25:02.256Z,101303.77
2022-11-29T15:30:23.458Z,101302.54
2022-11-29T15:35:27.038Z,101302.52
2022-11-29T15:40:35.630Z,101311.69
2022-11-29T15:45:39.989Z,101314.98
2022-11-29T15:51:00.393Z,101319.52
2022-11-29T15:56:12.213Z,101318.09
2022-11-29T16:01:20.670Z,101320.78
2022-11-29T16:06:40.882Z,101327.02
2022-11-29T16:11:44.624Z,101325.02
2022-11-29T16:16:50.172Z,101328.29
2022-11-29T16:22:26.170Z,101333.34
2022-11-29T16:27:33.664Z,101334.91
2022-11-29T16:32:42.530Z,101340.91
2022-11-29T16:37:46.667Z,101341.67
2022-11-29T16:43:47.508Z,101340.48
2022-11-29T16:48:57.471Z,101344.83
2022-11-29T16:54:21.215Z,101349.75
2022-11-29T16:59:28.350Z,101354.48
2022-11-29T17:04:31.437Z,101353.16
2022-11-29T17:09:34.776Z,101355.72
2022-11-29T17:14:40.023Z,101354.89
2022-11-29T17:19:43.708Z,101354.73
2022-11-29T17:24:48.574Z,101355.01
2022-11-29T17:29:54.007Z,101360.31
2022-11-29T17:34:56.892Z,101362.88
2022-11-29T17:40:00.972Z,101365.44
2022-11-29T17:45:04.388Z,101372.59
2022-11-29T17:50:07.707Z,101375.84
2022-11-29T17:55:10.677Z,101370.45
2022-11-29T18:00:15.542Z,101373.70
2022-11-29T18:05:18.641Z,101375.79
2022-11-29T18:10:21.447Z,101377.52
2022-11-29T18:15:27.212Z,101378.69
2022-11-29T18:20:29.983Z,101379.77
2022-11-29T18:25:40.476Z,101378.44
2022-11-29T18:30:44.146Z,101380.73
2022-11-29T18:35:48.884Z,101381.92
2022-11-29T18:40:51.720Z,101383.35
2022-11-29T18:45:54.516Z,101386.90
2022-11-29T18:51:05.928Z,101383.71
2022-11-29T18:56:17.032Z,101382.63
2022-11-29T19:01:21.298Z,101384.86
2022-11-29T19:06:27.692Z,101384.39
2022-11-29T19:11:34.783Z,101384.58
2022-11-29T19:16:39.409Z,101389.63
2022-11-29T19:21:42.350Z,101386.56
2022-11-29T19:26:47.667Z,101390.72
2022-11-29T19:31:50.615Z,101392.58
2022-11-29T19:36:53.415Z,101393.67
2022-11-29T19:41:56.191Z,101396.79
2022-11-29T19:46:59.327Z,101401.61
2022-11-29T19:52:07.315Z,101405.80
2022-11-29T19:57:10.110Z,101411.48
2022-11-29T20:02:13.221Z,101414.38
2022-11-29T20:07:16.342Z,101414.41
2022-11-29T20:12:19.165Z,101419.23
2022-11-29T20:17:22.582Z,101421.41
2022-11-29T20:22:25.366Z,101422.77
2022-11-29T20:27:28.193Z,101427.05
2022-11-29T20:32:31.258Z,101430.27
2022-11-29T20:37:45.158Z,101436.25
2022-11-29T20:42:54.219Z,101432.26
2022-11-29T20:48:36.112Z,101432.13
2022-11-29T20:53:42.951Z,101433.15
2022-11-29T20:58:45.784Z,101430.80
2022-11-29T21:03:48.778Z,101431.86
2022-11-29T21:08:51.702Z,101433.01
2022-11-29T21:13:55.058Z,101437.38
2022-11-29T21:19:00.763Z,101442.17
2022-11-29T21:24:19.675Z,101437.66
2022-11-29T21:29:23.517Z,101446.29
2022-11-29T21:34:26.322Z,101451.09
2022-11-29T21:39:34.126Z,101454.30
2022-11-29T21:44:36.894Z,101457.50
2022-11-29T21:49:40.006Z,101461.11
2022-11-29T21:54:42.804Z,101465.39
2022-11-29T21:59:45.818Z,101468.41
2022-11-29T22:04:48.956Z,101468.91
2022-11-29T22:09:52.104Z,101470.17
2022-11-29T22:14:54.860Z,101464.73
2022-11-29T22:19:57.605Z,101467.48
2022-11-29T22:25:00.360Z,101466.39
2022-11-29T22:30:03.496Z,101467.65
2022-11-29T22:35:06.500Z,101466.89
2022-11-29T22:40:09.509Z,101468.02
2022-11-29T22:45:12.368Z,101471.47
2022-11-29T22:50:15.231Z,101469.48
2022-11-29T22:55:18.012Z,101466.42
2022-11-29T23:00:21.344Z,101464.35
2022-11-29T23:05:27.259Z,101467.45
2022-11-29T23:10:33.602Z,101466.45
2022-11-29T23:15:36.361Z,101466.73
2022-11-29T23:20:39.884Z,101464.78
2022-11-29T23:25:49.623Z,101468.85
2022-11-29T23:30:54.346Z,101466.95
2022-11-29T23:36:03.178Z,101464.52
2022-11-29T23:41:07.458Z,101463.05
2022-11-29T23:46:14.424Z,101463.22
2022-11-29T23:51:17.954Z,101465.88
2022-11-29T23:56:21.900Z,101466.48
